Time;durP1;ratioP1;P1;durP2;ratioP2;P2;SDS_P1;SDS_P2;PMS_P1;PMS_P2;Temp;Humidity;BMP_temperature;BMP_pressure;BME280_temperature;BME280_humidity;BME280_pressure;Samples;Min_cycle;Max_cycle;Signal;HPM_P1;HPM_P2
2022/04/06 00:02:01;;;;;;;5.10;4.57;;;;;;;9.15;100.00;97517.47;5073551;28;20239;-66
2022/04/06 00:04:28;;;;;;;5.10;4.70;;;;;;;9.17;100.00;97518.22;5075114;28;20212;-66
2022/04/06 00:06:54;;;;;;;5.73;4.60;;;;;;;9.19;100.00;97517.13;5075027;28;20223;-66
2022/04/06 00:09:21;;;;;;;5.47;4.97;;;;;;;9.16;100.00;97520.00;5074793;28;20486;-66
2022/04/06 00:11:49;;;;;;;5.40;4.80;;;;;;;9.18;100.00;97512.00;5074476;28;20216;-66
2022/04/06 00:14:16;;;;;;;5.03;4.53;;;;;;;9.18;100.00;97512.81;5074932;28;20212;-66
2022/04/06 00:16:42;;;;;;;5.40;4.87;;;;;;;9.20;100.00;97510.06;5074996;28;20216;-66
2022/04/06 00:19:10;;;;;;;5.97;5.37;;;;;;;9.21;100.00;97501.22;5071836;28;20212;-66
2022/04/06 00:21:37;;;;;;;5.43;4.93;;;;;;;9.20;100.00;97507.44;5074869;28;20208;-68
2022/04/06 00:24:03;;;;;;;5.30;4.80;;;;;;;9.21;100.00;97495.94;5074881;28;20228;-66
2022/04/06 00:26:30;;;;;;;5.70;4.87;;;;;;;9.20;100.00;97502.16;5071857;28;20579;-65
2022/04/06 00:28:56;;;;;;;5.50;5.00;;;;;;;9.17;100.00;97494.50;5072540;28;20215;-65
2022/04/06 00:31:23;;;;;;;5.30;4.80;;;;;;;9.17;100.00;97494.50;5074690;28;20213;-67
2022/04/06 00:33:49;;;;;;;5.70;5.20;;;;;;;9.16;100.00;97491.00;5074579;28;20242;-66
2022/04/06 00:36:17;;;;;;;5.47;4.97;;;;;;;9.18;100.00;97488.28;5074649;28;20218;-66
2022/04/06 00:38:43;;;;;;;5.67;5.07;;;;;;;9.18;100.00;97483.00;5074530;28;20572;-67
2022/04/06 00:41:10;;;;;;;6.07;4.83;;;;;;;9.13;100.00;97482.50;5074174;28;20209;-67
2022/04/06 00:43:36;;;;;;;5.27;4.77;;;;;;;9.18;100.00;97486.44;5074455;28;20213;-66
2022/04/06 00:46:03;;;;;;;5.90;5.40;;;;;;;9.14;100.00;97478.91;5074334;28;20208;-67
2022/04/06 00:48:30;;;;;;;6.30;5.70;;;;;;;9.15;100.00;97475.31;5074421;28;20238;-67
2022/04/06 00:50:57;;;;;;;6.40;5.20;;;;;;;9.08;100.00;97474.94;5074220;28;20224;-67
2022/04/06 00:53:26;;;;;;;5.87;5.27;;;;;;;9.09;100.00;97479.25;5072176;28;20238;-68
2022/04/06 00:55:52;;;;;;;5.70;5.20;;;;;;;9.13;100.00;97466.66;5074149;28;20219;-68
2022/04/06 00:58:19;;;;;;;6.00;5.40;;;;;;;9.07;100.00;97472.41;5073675;28;20218;-68
2022/04/06 01:00:46;;;;;;;6.77;5.30;;;;;;;9.08;100.00;97468.81;5073943;28;20239;-67
2022/04/06 01:03:12;;;;;;;6.40;5.70;;;;;;;9.09;100.00;97465.22;5074003;28;20213;-66
2022/04/06 01:05:39;;;;;;;5.80;5.20;;;;;;;9.11;100.00;97463.31;5073900;28;20226;-65
2022/04/06 01:08:06;;;;;;;5.80;5.20;;;;;;;9.12;100.00;97467.63;5073845;28;20585;-67
2022/04/06 01:10:33;;;;;;;5.80;5.20;;;;;;;9.17;100.00;97468.97;5073096;28;20222;-67
2022/04/06 01:13:00;;;;;;;6.27;5.43;;;;;;;9.14;100.00;97463.06;5073802;28;20245;-66
2022/04/06 01:15:27;;;;;;;6.33;5.27;;;;;;;9.16;100.00;97466.44;5073453;28;20212;-66
2022/04/06 01:17:54;;;;;;;5.90;5.20;;;;;;;9.16;100.00;97469.06;5073653;28;20215;-66
2022/04/06 01:20:20;;;;;;;6.90;6.20;;;;;;;9.11;100.00;97465.97;5072001;28;20215;-68
2022/04/06 01:22:48;;;;;;;5.63;5.00;;;;;;;9.07;100.00;97456.59;5072861;28;20208;-67
2022/04/06 01:25:15;;;;;;;6.47;5.57;;;;;;;9.07;100.00;97459.22;5073262;28;20215;-67
2022/04/06 01:27:41;;;;;;;6.73;5.43;;;;;;;9.08;100.00;97452.97;5073483;28;20220;-67
2022/04/06 01:30:09;;;;;;;5.70;5.17;;;;;;;9.08;100.00;97452.97;5073391;28;20215;-66
2022/04/06 01:32:36;;;;;;;5.50;4.93;;;;;;;9.07;100.00;97454.75;5073022;28;20731;-67
2022/04/06 01:35:04;;;;;;;6.07;5.57;;;;;;;9.07;100.00;97456.59;5073122;28;20265;-66
2022/04/06 01:37:31;;;;;;;5.53;4.93;;;;;;;9.09;100.00;97459.94;5073213;28;20216;-66
2022/04/06 01:39:59;;;;;;;5.93;5.30;;;;;;;9.04;100.00;97456.78;5073289;28;20221;-66
2022/04/06 01:42:26;;;;;;;5.43;4.73;;;;;;;9.13;100.00;97456.13;5073257;28;20216;-66
2022/04/06 01:44:52;;;;;;;5.43;4.93;;;;;;;9.14;100.00;97450.75;5071322;28;20212;-66
2022/04/06 01:47:21;;;;;;;5.70;5.10;;;;;;;9.19;100.00;97445.13;5073399;28;20223;-66
2022/04/06 01:52:33;;;;;;;4.87;4.37;;;;;;;9.24;100.00;97458.81;5072969;28;20596;-66
2022/04/06 01:55:04;;;;;;;5.57;5.07;;;;;;;9.25;100.00;97455.22;5073214;28;20220;-66
2022/04/06 01:57:32;;;;;;;5.03;4.53;;;;;;;9.25;100.00;97456.03;5070614;28;20265;-66
2022/04/06 01:59:59;;;;;;;5.10;4.40;;;;;;;9.25;100.00;97450.75;5072807;28;20212;-66
2022/04/06 02:02:28;;;;;;;5.53;4.80;;;;;;;9.20;100.00;97445.03;5072839;28;20212;-66
2022/04/06 02:04:54;;;;;;;5.50;5.00;;;;;;;9.25;100.00;97439.41;5072991;28;20299;-66
2022/04/06 02:07:21;;;;;;;5.00;4.50;;;;;;;9.26;100.00;97444.56;5073043;28;20441;-66
2022/04/06 02:09:47;;;;;;;5.40;4.70;;;;;;;9.26;100.00;97435.81;5072916;28;20215;-66
2022/04/06 02:12:15;;;;;;;5.43;4.93;;;;;;;9.28;100.00;97439.16;5071275;28;20219;-68
2022/04/06 02:14:43;;;;;;;6.00;5.07;;;;;;;9.27;100.00;97433.06;5072757;28;20240;-68
2022/04/06 02:17:10;;;;;;;4.80;4.33;;;;;;;9.25;100.00;97423.56;5070252;28;20223;-67
2022/04/06 02:19:38;;;;;;;6.13;4.87;;;;;;;9.29;100.00;97423.22;5072856;28;20235;-67
2022/04/06 02:22:07;;;;;;;5.10;4.60;;;;;;;9.26;100.00;97419.97;5072877;28;20281;-67
2022/04/06 02:24:34;;;;;;;5.83;4.67;;;;;;;9.22;100.00;97429.06;5072568;28;20212;-66
2022/04/06 02:27:00;;;;;;;6.20;4.73;;;;;;;9.26;100.00;97417.34;5072738;28;20222;-68
2022/04/06 02:29:28;;;;;;;5.07;4.57;;;;;;;9.27;100.00;97424.28;5072617;28;20216;-65
2022/04/06 02:31:55;;;;;;;7.03;5.07;;;;;;;9.30;100.00;97421.44;5072930;28;20598;-68
2022/04/06 02:34:21;;;;;;;6.07;5.00;;;;;;;9.29;100.00;97419.75;5073933;28;20617;-67
2022/04/06 02:36:48;;;;;;;6.40;4.63;;;;;;;9.33;100.00;97422.06;5071961;28;20678;-66
2022/04/06 02:39:14;;;;;;;6.23;4.67;;;;;;;9.35;100.00;97424.56;5076742;28;20325;-66
2022/04/06 02:41:41;;;;;;;6.10;5.50;;;;;;;9.33;100.00;97422.06;5076708;28;20219;-66
2022/04/06 02:44:07;;;;;;;6.77;5.60;;;;;;;9.30;100.00;97419.63;5076383;28;20216;-67
2022/04/06 02:46:35;;;;;;;5.23;4.73;;;;;;;9.33;100.00;97427.31;5076360;28;20218;-67
2022/04/06 02:49:02;;;;;;;5.50;4.80;;;;;;;9.31;100.00;97423.13;5076635;28;20222;-66
2022/04/06 02:51:28;;;;;;;5.47;4.90;;;;;;;9.37;100.00;97417.38;5076376;28;20227;-66
2022/04/06 02:53:55;;;;;;;5.00;4.50;;;;;;;9.40;100.00;97417.13;5076386;28;20247;-66
2022/04/06 02:56:21;;;;;;;5.40;4.90;;;;;;;9.42;100.00;97404.69;5076261;28;20710;-66
2022/04/06 02:58:47;;;;;;;6.10;4.90;;;;;;;9.37;100.00;97409.47;5074468;28;20208;-66
2022/04/06 03:01:14;;;;;;;6.10;5.27;;;;;;;9.36;100.00;97402.53;5076375;28;20243;-66
2022/04/06 03:03:42;;;;;;;5.33;4.63;;;;;;;9.38;100.00;97403.25;5074627;28;20240;-67
2022/04/06 03:06:09;;;;;;;5.23;4.47;;;;;;;9.38;100.00;97403.25;5076291;28;20241;-68
2022/04/06 03:08:35;;;;;;;5.97;5.00;;;;;;;9.37;100.00;97398.94;5076129;28;20588;-68
2022/04/06 03:11:01;;;;;;;6.97;5.10;;;;;;;9.32;100.00;97401.91;5076128;28;20215;-68
2022/04/06 03:13:28;;;;;;;6.00;5.20;;;;;;;9.32;100.00;97390.50;5076207;28;20680;-67
2022/04/06 03:15:55;;;;;;;6.20;5.07;;;;;;;9.36;100.00;97384.06;5075873;28;20212;-67
2022/04/06 03:18:21;;;;;;;5.70;4.83;;;;;;;9.39;100.00;97383.81;5075735;28;20223;-66
2022/04/06 03:20:50;;;;;;;5.90;5.30;;;;;;;9.41;100.00;97381.88;5075941;28;20211;-66
2022/04/06 03:23:16;;;;;;;6.37;5.07;;;;;;;9.39;100.00;97378.53;5075622;28;20240;-66
2022/04/06 03:25:43;;;;;;;5.43;4.60;;;;;;;9.37;100.00;97380.47;5075806;28;20212;-66
2022/04/06 03:28:10;;;;;;;4.80;4.30;;;;;;;9.35;100.00;97377.09;5075056;28;20220;-66
2022/04/06 03:30:37;;;;;;;5.13;4.27;;;;;;;9.36;100.00;97384.06;5074621;28;20220;-66
2022/04/06 03:33:04;;;;;;;4.83;4.37;;;;;;;9.36;100.00;97381.44;5075636;28;20217;-67
2022/04/06 03:35:30;;;;;;;5.73;4.53;;;;;;;9.35;100.00;97377.94;5075574;28;20213;-66
2022/04/06 03:37:58;;;;;;;4.40;4.00;;;;;;;9.23;100.00;97373.59;5075366;28;20414;-67
2022/04/06 03:40:25;;;;;;;5.47;4.40;;;;;;;9.30;100.00;97373.97;5075709;28;20222;-67
2022/04/06 03:42:51;;;;;;;4.27;3.87;;;;;;;9.24;100.00;97374.44;5075534;28;20239;-66
2022/04/06 03:45:18;;;;;;;5.00;4.50;;;;;;;9.25;100.00;97376.13;5075178;28;20588;-66
2022/04/06 03:47:45;;;;;;;4.70;4.20;;;;;;;9.18;100.00;97374.91;5074701;28;20224;-67
2022/04/06 03:50:11;;;;;;;4.70;4.30;;;;;;;9.16;100.00;97371.53;5075474;28;20237;-67
2022/04/06 03:52:38;;;;;;;5.30;4.43;;;;;;;9.13;100.00;97371.78;5075635;28;20212;-66
2022/04/06 03:55:08;;;;;;;5.27;4.00;;;;;;;9.15;100.00;97369.84;5073710;28;20235;-66
2022/04/06 03:57:35;;;;;;;5.80;4.40;;;;;;;9.15;100.00;97369.84;5075321;28;20220;-66
2022/04/06 04:00:04;;;;;;;5.03;4.53;;;;;;;9.07;100.00;97366.97;5074778;28;20701;-67
2022/04/06 04:02:30;;;;;;;5.33;4.83;;;;;;;9.08;100.00;97364.22;5075060;28;20211;-66
2022/04/06 04:04:57;;;;;;;5.43;4.93;;;;;;;9.07;100.00;97369.59;5075281;28;20470;-67
2022/04/06 04:07:23;;;;;;;6.57;5.20;;;;;;;9.07;100.00;97356.41;5074978;28;20684;-66
2022/04/06 04:09:51;;;;;;;4.83;4.33;;;;;;;9.05;100.00;97356.53;5075176;28;20216;-67
2022/04/06 04:12:19;;;;;;;5.97;4.70;;;;;;;9.03;100.00;97354.97;5075267;28;20246;-67
2022/04/06 04:14:46;;;;;;;6.37;4.57;;;;;;;9.06;100.00;97362.66;5074788;28;20603;-68
2022/04/06 04:17:12;;;;;;;4.67;4.27;;;;;;;9.04;100.00;97354.84;5074709;28;20219;-66
2022/04/06 04:19:39;;;;;;;5.43;4.80;;;;;;;9.05;100.00;97355.72;5063471;28;20289;-66
2022/04/06 04:22:09;;;;;;;6.27;4.90;;;;;;;9.06;100.00;97358.19;5073291;28;20216;-66
2022/04/06 04:24:35;;;;;;;5.37;4.87;;;;;;;8.98;100.00;97354.47;5074719;28;20213;-67
2022/04/06 04:27:02;;;;;;;5.80;4.77;;;;;;;8.94;100.00;97356.50;5074651;28;20227;-66
2022/04/06 04:29:30;;;;;;;5.00;4.50;;;;;;;8.90;100.00;97354.19;5074505;28;20220;-67
2022/04/06 04:31:56;;;;;;;5.13;4.60;;;;;;;9.00;100.00;97356.03;5074551;28;20222;-67
2022/04/06 04:34:23;;;;;;;5.70;5.07;;;;;;;9.01;100.00;97351.63;5074720;28;20252;-66
2022/04/06 04:36:49;;;;;;;5.27;4.77;;;;;;;9.01;100.00;97352.44;5074486;28;20216;-67
2022/04/06 04:39:16;;;;;;;5.23;4.73;;;;;;;8.95;100.00;97352.06;5074454;28;20294;-67
2022/04/06 04:41:42;;;;;;;5.17;4.53;;;;;;;8.94;100.00;97345.13;5074143;28;20211;-67
2022/04/06 04:44:09;;;;;;;6.37;4.87;;;;;;;8.94;100.00;97348.59;5074486;28;20208;-67
2022/04/06 04:46:36;;;;;;;5.60;4.60;;;;;;;8.97;100.00;97344.88;5072567;28;20239;-66
2022/04/06 04:49:03;;;;;;;5.90;4.57;;;;;;;8.98;100.00;97346.56;5074390;28;20213;-67
2022/04/06 04:51:30;;;;;;;6.17;4.80;;;;;;;9.00;100.00;97345.50;5074001;28;20213;-67
2022/04/06 04:53:57;;;;;;;6.43;4.53;;;;;;;8.99;100.00;97349.09;5074108;28;20246;-67
2022/04/06 04:56:24;;;;;;;5.00;4.50;;;;;;;9.06;100.00;97344.22;5073968;28;20295;-67
2022/04/06 04:58:51;;;;;;;5.20;4.50;;;;;;;9.10;100.00;97345.63;5074148;28;20293;-66
2022/04/06 05:01:17;;;;;;;5.43;4.40;;;;;;;9.13;100.00;97350.69;5073708;28;20595;-67
2022/04/06 05:03:45;;;;;;;4.80;4.30;;;;;;;9.10;100.00;97343.84;5073965;28;20227;-68
2022/04/06 05:06:12;;;;;;;5.03;4.53;;;;;;;9.05;100.00;97337.25;5073706;28;20230;-67
2022/04/06 05:08:38;;;;;;;5.07;4.50;;;;;;;9.13;100.00;97345.41;5073867;28;20211;-67
2022/04/06 05:11:04;;;;;;;4.80;4.30;;;;;;;9.16;100.00;97345.16;5073875;28;20215;-67
2022/04/06 05:13:32;;;;;;;6.40;4.73;;;;;;;9.18;100.00;97348.53;5072235;28;20220;-67
2022/04/06 05:15:58;;;;;;;5.20;3.90;;;;;;;9.23;100.00;97344.59;5073599;28;20266;-66
2022/04/06 05:18:25;;;;;;;4.83;4.33;;;;;;;9.30;100.00;97342.34;5073712;28;20583;-66
2022/04/06 05:20:54;;;;;;;4.73;4.23;;;;;;;9.33;100.00;97344.72;5073879;28;20212;-67
2022/04/06 05:23:20;;;;;;;4.27;3.83;;;;;;;9.36;100.00;97336.59;5073743;28;20292;-66
2022/04/06 05:25:46;;;;;;;5.07;4.20;;;;;;;9.38;100.00;97339.94;5073573;28;20220;-66
2022/04/06 05:28:15;;;;;;;4.23;3.83;;;;;;;9.38;100.00;97338.16;5072673;28;20745;-67
2022/04/06 05:30:42;;;;;;;4.50;4.10;;;;;;;9.40;100.00;97343.28;5064179;28;20212;-66
2022/04/06 05:33:09;;;;;;;4.20;3.73;;;;;;;9.41;100.00;97339.69;5073470;28;20328;-67
2022/04/06 05:35:35;;;;;;;4.40;4.00;;;;;;;9.41;100.00;97337.91;5073362;28;20240;-67
2022/04/06 05:38:03;;;;;;;4.57;3.90;;;;;;;9.41;100.00;97330.00;5073077;28;20216;-67
2022/04/06 05:40:30;;;;;;;4.53;4.10;;;;;;;9.40;100.00;97338.03;5071685;28;20700;-66
2022/04/06 05:42:57;;;;;;;4.70;4.07;;;;;;;9.41;100.00;97330.00;5073310;28;20247;-67
2022/04/06 05:45:23;;;;;;;4.63;3.87;;;;;;;9.44;100.00;97334.19;5073296;28;20207;-68
2022/04/06 05:47:50;;;;;;;4.10;3.70;;;;;;;9.49;100.00;97329.41;5072825;28;20220;-66
2022/04/06 05:50:17;;;;;;;4.40;4.00;;;;;;;9.52;100.00;97332.66;5073146;28;20218;-68
2022/04/06 05:52:44;;;;;;;3.93;3.63;;;;;;;9.55;100.00;97329.75;5073215;28;20220;-66
2022/04/06 05:55:12;;;;;;;4.33;3.97;;;;;;;9.60;100.00;97332.06;5072755;28;20241;-67
2022/04/06 05:57:38;;;;;;;4.23;3.43;;;;;;;9.64;100.00;97341.41;5073124;28;20581;-67
2022/04/06 06:00:08;;;;;;;4.00;3.50;;;;;;;9.68;100.00;97345.50;5072957;28;20217;-67
2022/04/06 06:02:35;;;;;;;3.40;3.10;;;;;;;9.72;100.00;97339.84;5072824;28;20208;-67
2022/04/06 06:05:02;;;;;;;4.10;3.70;;;;;;;9.73;100.00;97335.44;5071121;28;20686;-67
2022/04/06 06:07:28;;;;;;;4.07;3.70;;;;;;;9.77;100.00;97342.13;5073130;28;20217;-66
2022/04/06 06:09:55;;;;;;;4.47;3.90;;;;;;;9.82;100.00;97342.59;5072826;28;20696;-66
2022/04/06 06:12:22;;;;;;;3.80;3.50;;;;;;;9.88;100.00;97344.75;5073094;28;20209;-66
2022/04/06 06:14:49;;;;;;;4.20;3.80;;;;;;;9.93;100.00;97354.00;5072833;28;20238;-67
2022/04/06 06:17:15;;;;;;;5.03;3.80;;;;;;;9.95;100.00;97340.66;5072885;28;20239;-67
2022/04/06 06:19:42;;;;;;;3.87;3.57;;;;;;;9.97;100.00;97339.59;5072668;28;20217;-66
2022/04/06 06:22:08;;;;;;;3.93;3.50;;;;;;;10.03;100.00;97348.84;5072918;28;20585;-66
2022/04/06 06:24:35;;;;;;;3.43;3.13;;;;;;;10.09;100.00;97338.66;5072938;28;20213;-68
2022/04/06 06:27:01;;;;;;;3.67;3.33;;;;;;;10.15;100.00;97347.91;5072888;28;20213;-67
2022/04/06 06:29:29;;;;;;;4.43;3.80;;;;;;;10.22;100.00;97338.53;5061597;28;20218;-68
2022/04/06 06:31:55;;;;;;;3.97;3.60;;;;;;;10.27;100.00;97341.63;5071235;28;20213;-67
2022/04/06 06:34:22;;;;;;;3.97;3.57;;;;;;;10.32;100.00;97347.38;5072668;28;20231;-66
2022/04/06 06:36:49;;;;;;;4.00;3.60;;;;;;;10.35;100.00;97345.31;5072432;28;20215;-66
2022/04/06 06:39:15;;;;;;;4.17;3.60;;;;;;;10.36;100.00;97336.47;5072743;28;20207;-67
2022/04/06 06:41:43;;;;;;;4.70;3.80;;;;;;;10.45;100.00;97340.16;5072508;28;20692;-66
2022/04/06 06:44:10;;;;;;;4.70;4.30;;;;;;;10.50;100.00;97340.59;5063856;28;20218;-66
2022/04/06 06:46:38;;;;;;;4.00;3.63;;;;;;;10.60;100.00;97344.19;5072604;28;20213;-66
2022/04/06 06:49:04;;;;;;;4.77;3.93;;;;;;;10.65;100.00;97337.53;5072662;28;20581;-67
2022/04/06 06:51:32;;;;;;;4.60;4.20;;;;;;;10.69;100.00;97340.78;5072685;28;20226;-67
2022/04/06 06:53:59;;;;;;;4.97;4.47;;;;;;;10.73;100.00;97344.84;5072647;28;20213;-66
2022/04/06 06:56:26;;;;;;;4.80;4.00;;;;;;;10.74;100.00;97335.94;5066211;28;20663;-69
2022/04/06 06:58:53;;;;;;;4.40;4.03;;;;;;;10.79;100.00;97333.78;5067176;28;20215;-68
2022/04/06 07:01:19;;;;;;;4.67;4.27;;;;;;;10.82;100.00;97333.53;5070176;28;20748;-66
2022/04/06 07:03:47;;;;;;;4.67;4.27;;;;;;;10.85;100.00;97330.63;5070588;28;20212;-68
2022/04/06 07:06:14;;;;;;;4.37;3.97;;;;;;;10.87;100.00;97326.03;5062345;28;20588;-66
2022/04/06 07:08:41;;;;;;;4.30;3.90;;;;;;;10.89;100.00;97329.41;5055560;28;20219;-66
2022/04/06 07:11:07;;;;;;;4.80;4.40;;;;;;;10.87;100.00;97331.31;5069736;28;20222;-68
2022/04/06 07:13:34;;;;;;;4.17;3.77;;;;;;;10.97;100.00;97326.97;5068852;28;20220;-66
2022/04/06 07:16:01;;;;;;;3.90;3.50;;;;;;;11.04;100.00;97322.84;5069373;28;20766;-67
2022/04/06 07:18:29;;;;;;;5.07;4.30;;;;;;;11.10;100.00;97327.63;5069980;28;20215;-66
2022/04/06 07:20:57;;;;;;;4.60;4.07;;;;;;;11.11;100.00;97329.28;5064507;28;20438;-66
2022/04/06 07:23:24;;;;;;;4.00;3.60;;;;;;;11.17;100.00;97323.47;5070540;28;20550;-70
2022/04/06 07:25:50;;;;;;;4.30;3.90;;;;;;;11.24;100.00;97319.34;5072205;28;20212;-69
2022/04/06 07:28:17;;;;;;;4.03;3.60;;;;;;;11.30;100.00;97326.75;5071991;28;20207;-73
2022/04/06 07:30:43;;;;;;;3.63;3.33;;;;;;;11.33;100.00;97314.16;5073214;28;20243;-68
2022/04/06 07:33:12;;;;;;;3.47;3.17;;;;;;;11.41;100.00;97316.97;5071763;28;20222;-66
2022/04/06 07:35:39;;;;;;;3.90;3.60;;;;;;;11.47;100.00;97315.59;5074357;28;20252;-66
2022/04/06 07:38:07;;;;;;;3.73;3.43;;;;;;;11.48;100.00;97317.25;5073717;28;20230;-66
2022/04/06 07:40:35;;;;;;;4.47;3.43;;;;;;;11.46;100.00;97311.28;5071489;28;20268;-67
2022/04/06 07:43:02;;;;;;;5.17;3.77;;;;;;;11.37;100.00;97314.72;5070799;28;20214;-67
2022/04/06 07:45:28;;;;;;;3.60;3.30;;;;;;;11.34;100.00;97310.53;5073465;28;20218;-67
2022/04/06 07:47:55;;;;;;;3.33;2.97;;;;;;;11.37;100.00;97309.44;5072229;28;20675;-67
2022/04/06 07:50:23;;;;;;;3.23;2.90;;;;;;;11.49;100.00;97313.69;5057755;28;20222;-66
2022/04/06 07:52:50;;;;;;;3.13;2.83;;;;;;;11.61;100.00;97310.81;5063431;28;20687;-67
2022/04/06 07:55:18;;;;;;;2.77;2.57;;;;;;;11.67;100.00;97309.47;5072399;28;20771;-66
2022/04/06 07:57:45;;;;;;;3.27;2.80;;;;;;;11.79;100.00;97306.59;5073323;28;20225;-65
2022/04/06 08:00:15;;;;;;;2.90;2.70;;;;;;;11.88;100.00;97310.25;5062719;28;20609;-66
2022/04/06 08:02:43;;;;;;;5.33;2.90;;;;;;;11.90;100.00;97313.59;5062831;28;20301;-69
2022/04/06 08:05:10;;;;;;;2.70;2.50;;;;;;;11.77;100.00;97303.25;5069821;28;20214;-65
2022/04/06 08:07:39;;;;;;;2.90;2.60;;;;;;;11.73;100.00;97316.88;5070679;28;20226;-65
2022/04/06 08:10:08;;;;;;;5.33;3.70;;;;;;;11.77;99.96;97305.91;5069262;28;20224;-66
2022/04/06 08:12:36;;;;;;;5.03;4.03;;;;;;;11.71;100.00;97308.22;5070481;28;20822;-68
2022/04/06 08:15:03;;;;;;;5.73;4.07;;;;;;;11.74;100.00;97302.69;5071930;28;20239;-67
2022/04/06 08:17:34;;;;;;;3.90;3.50;;;;;;;11.80;99.79;97307.44;5068233;28;20313;-67
2022/04/06 08:20:01;;;;;;;3.60;3.30;;;;;;;11.90;99.77;97314.44;5071984;28;20233;-66
2022/04/06 08:22:27;;;;;;;3.50;3.20;;;;;;;11.97;100.00;97307.63;5072093;28;20207;-65
2022/04/06 08:24:54;;;;;;;2.90;2.70;;;;;;;12.02;99.67;97300.13;5069615;28;20398;-66
2022/04/06 08:27:20;;;;;;;3.00;2.53;;;;;;;12.13;98.93;97313.28;5072416;28;20211;-69
2022/04/06 08:29:48;;;;;;;3.13;2.83;;;;;;;12.17;98.52;97300.59;5071212;28;20703;-71
2022/04/06 08:32:15;;;;;;;2.63;2.43;;;;;;;12.20;98.60;97305.59;5069056;28;20216;-69
2022/04/06 08:34:41;;;;;;;2.83;2.27;;;;;;;12.27;96.92;97301.44;5071035;28;20221;-67
2022/04/06 08:37:09;;;;;;;2.30;2.10;;;;;;;12.11;95.98;97298.47;5072506;28;20216;-69
2022/04/06 08:39:35;;;;;;;2.30;2.10;;;;;;;12.13;96.35;97300.03;5071612;28;20295;-67
2022/04/06 08:42:02;;;;;;;3.27;2.20;;;;;;;11.96;97.41;97302.47;5072351;28;20589;-66
2022/04/06 08:44:29;;;;;;;2.03;1.83;;;;;;;11.86;97.82;97302.44;5070865;28;20212;-67
2022/04/06 08:47:03;;;;;;;2.27;2.07;;;;;;;11.80;98.31;97310.09;5071181;28;20254;-68
2022/04/06 08:49:30;;;;;;;2.60;2.00;;;;;;;11.71;99.79;97316.16;5070366;28;20237;-69
2022/04/06 08:51:59;;;;;;;2.50;2.30;;;;;;;11.62;100.00;97309.03;5055013;28;20588;-67
2022/04/06 08:54:26;;;;;;;2.57;1.90;;;;;;;11.57;100.00;97309.38;5067000;28;20609;-67
2022/04/06 08:56:53;;;;;;;1.60;1.50;;;;;;;11.74;100.00;97307.97;5072013;28;20240;-66
2022/04/06 08:59:20;;;;;;;1.60;1.50;;;;;;;11.93;97.94;97300.09;5071442;28;20214;-66
2022/04/06 09:01:47;;;;;;;2.20;1.10;;;;;;;12.16;96.54;97301.56;5070809;28;20271;-68
2022/04/06 09:04:15;;;;;;;1.37;1.27;;;;;;;12.51;94.19;97299.25;5071841;28;20219;-67
2022/04/06 09:06:42;;;;;;;2.33;1.20;;;;;;;12.75;93.10;97302.31;5071686;28;20218;-68
2022/04/06 09:09:10;;;;;;;1.37;1.07;;;;;;;12.77;89.31;97300.41;5070727;28;20211;-67
2022/04/06 09:11:42;;;;;;;1.70;1.30;;;;;;;12.83;90.64;97295.34;5070358;28;20212;-67
2022/04/06 09:14:09;;;;;;;1.77;0.90;;;;;;;12.95;87.79;97286.31;5072045;28;20241;-67
2022/04/06 09:16:35;;;;;;;1.23;0.83;;;;;;;12.92;86.04;97288.38;5070978;28;20242;-67
2022/04/06 09:19:08;;;;;;;1.40;0.93;;;;;;;13.13;86.02;97281.97;5071403;28;20213;-67
2022/04/06 09:21:39;;;;;;;0.80;0.73;;;;;;;13.25;82.86;97285.28;5071517;28;20218;-67
2022/04/06 09:24:13;;;;;;;0.70;0.70;;;;;;;13.33;83.71;97288.91;5070928;28;20229;-68
2022/04/06 09:26:39;;;;;;;1.33;0.80;;;;;;;13.46;82.87;97288.59;5069263;28;20565;-67
2022/04/06 09:29:06;;;;;;;0.90;0.80;;;;;;;13.54;81.46;97283.38;5070920;28;20239;-69
2022/04/06 09:31:38;;;;;;;0.60;0.60;;;;;;;13.76;81.19;97285.69;5070817;28;20217;-68
2022/04/06 09:34:05;;;;;;;0.80;0.80;;;;;;;14.01;79.41;97277.06;5071395;28;20213;-67
2022/04/06 09:36:34;;;;;;;1.77;0.80;;;;;;;14.18;78.75;97282.41;5072026;28;20253;-67
2022/04/06 09:39:02;;;;;;;1.97;0.80;;;;;;;14.39;77.55;97276.84;5070212;28;20226;-67
2022/04/06 09:41:30;;;;;;;0.80;0.80;;;;;;;14.21;78.28;97270.66;5072056;28;20214;-67
2022/04/06 09:44:08;;;;;;;0.80;0.70;;;;;;;13.93;79.38;97266.34;5071286;28;20628;-67
2022/04/06 09:49:20;;;;;;;0.80;0.80;;;;;;;14.09;78.72;97256.72;5071719;28;20237;-67
2022/04/06 09:51:49;;;;;;;0.70;0.70;;;;;;;14.25;78.89;97251.63;5071878;28;20211;-68
2022/04/06 09:54:18;;;;;;;0.80;0.70;;;;;;;14.26;79.07;97252.47;5071674;28;20718;-67
2022/04/06 09:56:45;;;;;;;0.80;0.80;;;;;;;14.29;77.46;97247.69;5071892;28;20231;-68
2022/04/06 09:59:13;;;;;;;1.67;0.80;;;;;;;14.54;77.65;97252.25;5071582;28;20215;-67
2022/04/06 10:01:45;;;;;;;0.80;0.80;;;;;;;14.85;75.59;97244.72;5071750;28;20230;-68
2022/04/06 10:04:14;;;;;;;0.77;0.77;;;;;;;14.96;73.90;97247.16;5069907;28;20307;-67
2022/04/06 10:06:42;;;;;;;0.97;0.90;;;;;;;15.11;72.72;97234.94;5071769;28;20240;-67
2022/04/06 10:09:11;;;;;;;2.63;1.10;;;;;;;15.20;73.16;97239.31;5071499;28;20677;-67
2022/04/06 10:11:40;;;;;;;0.80;0.80;;;;;;;15.28;72.20;97236.75;5074524;28;20587;-67
2022/04/06 10:14:08;;;;;;;2.00;0.63;;;;;;;15.10;72.42;97230.63;5075245;28;20272;-67
2022/04/06 10:16:36;;;;;;;0.57;0.50;;;;;;;14.94;71.08;97227.84;5074376;28;20239;-67
2022/04/06 10:19:06;;;;;;;0.40;0.40;;;;;;;14.86;70.67;97225.13;5074183;28;20211;-68
2022/04/06 10:21:39;;;;;;;1.20;0.60;;;;;;;14.83;72.07;97220.09;5073525;28;20216;-67
2022/04/06 10:24:23;;;;;;;0.90;0.57;;;;;;;14.84;72.89;97221.78;5075051;28;20215;-67
2022/04/06 10:27:12;;;;;;;0.60;0.60;;;;;;;14.61;71.03;97220.59;5073158;28;20219;-68
2022/04/06 10:30:11;;;;;;;0.50;0.40;;;;;;;14.21;73.59;97212.19;5072864;28;20215;-68
2022/04/06 10:32:38;;;;;;;0.83;0.60;;;;;;;14.13;73.58;97206.78;5074285;28;20223;-67
2022/04/06 10:35:24;;;;;;;3.57;1.47;;;;;;;14.35;70.91;97214.38;5074888;28;20220;-68
2022/04/06 10:37:54;;;;;;;4.90;1.37;;;;;;;14.82;72.65;97207.78;5065205;28;20207;-67
2022/04/06 10:40:22;;;;;;;1.90;1.20;;;;;;;15.07;72.16;97212.28;5074758;28;20215;-67
2022/04/06 10:42:50;;;;;;;4.53;1.60;;;;;;;15.18;71.36;97201.41;5075296;28;20234;-68
2022/04/06 10:45:35;;;;;;;0.90;0.60;;;;;;;15.12;70.67;97199.34;5071682;28;20229;-68
2022/04/06 10:48:13;;;;;;;0.70;0.70;;;;;;;15.21;70.06;97193.94;5074641;28;20265;-67
2022/04/06 10:50:41;;;;;;;1.33;0.70;;;;;;;15.36;70.41;97196.88;5074796;28;20292;-68
2022/04/06 10:53:27;;;;;;;0.80;0.70;;;;;;;15.52;68.02;97191.66;5070939;28;20302;-66
2022/04/06 10:55:58;;;;;;;0.93;0.50;;;;;;;15.75;65.07;97184.75;5075589;28;20239;-68
2022/04/06 10:58:27;;;;;;;2.20;0.60;;;;;;;15.49;66.17;97181.31;5076531;28;20544;-68
2022/04/06 11:01:16;;;;;;;2.00;0.57;;;;;;;15.31;65.17;97177.84;5076510;28;20243;-68
2022/04/06 11:03:55;;;;;;;1.00;0.50;;;;;;;15.10;68.78;97166.75;5077885;28;20211;-67
2022/04/06 11:06:52;;;;;;;0.93;0.40;;;;;;;14.88;69.52;97168.13;5077381;28;20204;-67
2022/04/06 11:12:14;;;;;;;0.40;0.40;;;;;;;14.81;69.19;97156.44;5077068;28;20215;-67
2022/04/06 11:14:44;;;;;;;1.17;0.50;;;;;;;14.98;70.63;97149.38;5077606;28;20211;-68
2022/04/06 11:17:38;;;;;;;0.43;0.43;;;;;;;15.09;68.75;97147.28;5076963;28;20251;-67
2022/04/06 11:20:08;;;;;;;0.60;0.60;;;;;;;15.29;69.91;97145.22;5077366;28;20215;-68
2022/04/06 11:22:35;;;;;;;0.40;0.40;;;;;;;15.59;65.92;97134.09;5078480;28;20681;-66
2022/04/06 11:25:03;;;;;;;0.73;0.50;;;;;;;15.75;69.35;97134.97;5075689;28;20243;-68
2022/04/06 11:27:31;;;;;;;0.40;0.40;;;;;;;15.62;63.72;97131.09;5074372;28;20221;-68
2022/04/06 11:30:04;;;;;;;1.10;0.60;;;;;;;15.44;64.16;97120.53;5074489;28;20218;-67
2022/04/06 11:32:31;;;;;;;1.80;0.60;;;;;;;15.36;64.76;97117.00;5071933;28;20217;-68
2022/04/06 11:35:01;;;;;;;0.60;0.60;;;;;;;15.30;65.58;97120.28;5074318;28;20599;-67
2022/04/06 11:37:29;;;;;;;1.17;0.60;;;;;;;15.33;64.98;97117.34;5074268;28;20231;-68
2022/04/06 11:40:00;;;;;;;0.87;0.53;;;;;;;15.30;62.98;97107.81;5073989;28;20220;-67
2022/04/06 11:42:27;;;;;;;0.83;0.53;;;;;;;15.37;63.27;97118.66;5078935;28;20216;-67
2022/04/06 11:44:53;;;;;;;0.60;0.50;;;;;;;15.45;61.93;97110.75;5079076;28;20215;-68